Cherry Creek, NY

10:11 PM EDT on June 01, 2015 (GMT -0400)
Oak Street, South Dayton | | Change Station
CLOSE
Current Station
Personal Weather Station
Location: South Dayton, NY
Elevation: 1303 ft
Nearby Weather Stations

Elev 1303 ft 42.36 °N, 79.05 °W | Updated 4 seconds ago

Overcast
Overcast
50.7 °F
Feels Like 50.7 °F
N
3.1
Wind Variable Wind from NE
Gusts 3.1 mph

Today
High -- | Low -- °F
--% Chance of Precip.
Yesterday
High -- | Low -- °F
Precip. -- in
5:42 AM 8:46 PM
Full, 100% visible
Pressure 30.17 in
Visibility 10.0 miles
Clouds Overcast 600 ft
Dew Point 50 °F
Humidity 99%
Rainfall 0.02 in
Snow Depth Not available.
UV 0 out of 12
Pollen 3.00 out of 12
Air Quality Not available.
Flu Activity Sporadic
METAR KJHW 020155Z 03008KT 10SM OVC006 09/07 A3017 RMK AO1

More Conditions Fewer Conditions

Pressure 30.17 in
Visibility 10.0 miles
Clouds Overcast 600 ft
Dew Point 50 °F
Humidity 99%
Rainfall 0.02 in
Snow Depth Not available.
UV 0 out of 12
Pollen 3.00 out of 12
Air Quality Not available.
Flu Activity Sporadic
METAR KJHW 020155Z 03008KT 10SM OVC006 09/07 A3017 RMK AO1

More Conditions Fewer Conditions

10-Day Weather Forecast

Almanac

Astronomy

Jun. 01, 2015 Rise Set
Actual Time
Civil Twilight
Nautical Twilight
Astronomical Twilight
Moon
Length of Visible Light
Length of Day
Tomorrow will be .
, % of the Moon is Illuminated

Today's Extremes

State Highs State Lows

Community

WunderPhotos

Upload Photos

1,825,857 photos uploaded!

WunderBlogs® & News

Nearby

Air Quality

  Air Quality AQ Index Pollutant
Not available.

Snow Depth

Station Depth Elevation

Earthquake Activity

City Distance Mag. Time & Date
Minimum magnitude displayed is 2.5.

Coastal Water Temperatures

Place Temperature

Stations

Nearby Weather Stations

Station Location Temp. Windchill Dew Point Humidity Wind Precip. Elev Updated Type